Time;durP1;ratioP1;P1;durP2;ratioP2;P2;SDS_P1;SDS_P2;PMS_P1;PMS_P2;Temp;Humidity;BMP_temperature;BMP_pressure;BME280_temperature;BME280_humidity;BME280_pressure;Samples;Min_cycle;Max_cycle;Signal;HPM_P1;HPM_P2
2023/01/23 00:01:41;;;;;;;26.13;12.87;;;1.80;99.90;;;1.47;83.44;102021.44;5048988;28;20225;-70
2023/01/23 00:04:12;;;;;;;19.60;12.50;;;1.80;99.90;;;1.46;84.12;102012.94;5051326;28;20255;-70
2023/01/23 00:06:41;;;;;;;21.60;11.77;;;1.80;99.90;;;1.47;83.54;102016.34;5047946;28;20248;-70
2023/01/23 00:09:09;;;;;;;18.47;11.77;;;1.80;99.90;;;1.49;83.93;102025.84;5052100;28;20202;-72
2023/01/23 00:11:39;;;;;;;22.40;12.83;;;1.80;99.90;;;1.49;84.21;102019.88;5048017;28;20237;-70
2023/01/23 00:14:08;;;;;;;20.50;12.13;;;1.80;99.90;;;1.54;83.80;102023.53;5049258;28;20268;-72
2023/01/23 00:16:36;;;;;;;19.13;12.17;;;1.80;99.90;;;1.54;83.50;102024.41;5041524;28;20741;-71
2023/01/23 00:19:05;;;;;;;20.50;12.10;;;1.90;99.90;;;1.57;84.12;102028.81;5050725;28;20501;-70
2023/01/23 00:21:33;;;;;;;19.80;11.87;;;1.80;99.90;;;1.57;84.11;102033.88;5044057;28;20217;-70
2023/01/23 00:24:03;;;;;;;21.27;12.73;;;1.90;99.90;;;1.60;83.76;102034.94;5040523;28;20215;-70
2023/01/23 00:26:33;;;;;;;22.83;12.50;;;1.90;99.90;;;1.60;84.54;102042.56;5048850;28;20207;-69
2023/01/23 00:29:04;;;;;;;19.83;11.83;;;1.90;99.90;;;1.60;84.43;102041.69;5048563;28;20210;-70
2023/01/23 00:31:35;;;;;;;21.43;12.57;;;1.90;99.90;;;1.60;84.43;102039.16;5036525;28;20206;-71
2023/01/23 00:34:08;;;;;;;21.13;11.57;;;1.90;99.90;;;1.61;83.87;102038.34;5049872;28;20248;-70
2023/01/23 00:36:41;;;;;;;21.53;12.77;;;1.90;99.90;;;1.61;83.86;102043.44;5045413;28;20300;-68
2023/01/23 00:39:16;;;;;;;21.27;12.13;;;1.80;99.90;;;1.60;84.55;102039.16;5042101;28;20236;-72
2023/01/23 00:41:48;;;;;;;17.37;12.00;;;1.90;99.90;;;1.61;83.85;102029.06;5039208;28;20293;-71
2023/01/23 00:44:18;;;;;;;25.80;13.10;;;1.90;99.90;;;1.61;84.54;102030.72;5041786;28;20213;-70
2023/01/23 00:46:47;;;;;;;20.20;12.27;;;1.90;99.90;;;1.60;84.00;102034.06;5048397;28;20225;-71
2023/01/23 00:49:16;;;;;;;18.47;12.93;;;1.90;99.90;;;1.57;84.18;102029.69;5033547;28;20206;-71
2023/01/23 00:51:45;;;;;;;25.43;13.93;;;2.00;99.90;;;1.57;84.11;102038.97;5034095;28;20210;-70
2023/01/23 00:54:13;;;;;;;20.73;12.47;;;1.90;99.90;;;1.59;83.99;102037.41;5046680;28;20210;-71
2023/01/23 00:56:42;;;;;;;21.27;12.93;;;1.90;99.90;;;1.57;84.25;102029.69;5041781;28;20635;-70
2023/01/23 00:59:11;;;;;;;26.57;13.90;;;1.80;99.90;;;1.58;84.12;102035.63;5046256;28;20214;-69
2023/01/23 01:01:41;;;;;;;22.03;12.90;;;1.80;99.90;;;1.61;84.45;102045.97;5051025;28;20658;-70
2023/01/23 01:04:09;;;;;;;26.27;14.47;;;1.80;99.90;;;1.61;84.37;102044.31;5048675;28;20220;-70
2023/01/23 01:06:38;;;;;;;23.47;12.97;;;1.90;99.90;;;1.60;84.70;102050.19;5039411;28;20203;-70
2023/01/23 01:09:06;;;;;;;21.47;13.13;;;1.90;99.90;;;1.62;83.98;102046.06;5036126;28;20243;-69
2023/01/23 01:11:35;;;;;;;22.50;12.13;;;1.90;99.90;;;1.63;83.96;102040.19;5039747;28;20284;-69
2023/01/23 01:14:04;;;;;;;22.23;12.30;;;1.90;99.90;;;1.62;84.38;102045.16;5044643;28;20207;-70
2023/01/23 01:16:33;;;;;;;21.93;12.70;;;1.90;99.90;;;1.62;84.41;102052.78;5039115;28;20229;-70
2023/01/23 01:19:02;;;;;;;24.63;14.33;;;1.90;99.90;;;1.61;84.46;102051.91;5039045;28;20245;-69
2023/01/23 01:21:31;;;;;;;22.20;12.90;;;1.90;99.90;;;1.62;84.65;102048.63;5038937;28;20714;-70
2023/01/23 01:23:59;;;;;;;25.67;12.63;;;1.90;99.90;;;1.62;84.35;102048.63;5032098;28;20207;-70
2023/01/23 01:26:28;;;;;;;22.10;13.73;;;1.80;99.90;;;1.61;84.09;102056.13;5032059;28;20215;-70
2023/01/23 01:28:57;;;;;;;22.53;12.53;;;1.90;99.90;;;1.60;84.80;102059.47;5034072;28;20653;-70
2023/01/23 01:31:25;;;;;;;27.60;13.60;;;1.90;99.90;;;1.60;84.39;102057.81;5041693;28;20608;-71
2023/01/23 01:33:54;;;;;;;25.57;13.03;;;1.80;99.90;;;1.62;85.10;102058.78;5047548;28;20202;-70
2023/01/23 01:36:25;;;;;;;20.93;12.97;;;1.90;99.90;;;1.63;84.26;102063.06;5049436;28;20702;-70
2023/01/23 01:38:54;;;;;;;19.80;11.73;;;1.90;99.90;;;1.62;84.83;102068.03;5037616;28;20210;-70
2023/01/23 01:41:22;;;;;;;22.13;12.30;;;1.90;99.90;;;1.63;85.43;102068.16;5042828;28;20263;-71
2023/01/23 01:43:52;;;;;;;25.43;13.30;;;1.90;99.90;;;1.65;84.37;102076.72;5033674;28;20214;-69
2023/01/23 01:46:22;;;;;;;21.80;11.53;;;1.90;99.90;;;1.62;84.43;102068.03;5034492;28;20710;-70
2023/01/23 01:49:15;;;;;;;25.10;14.23;;;1.90;99.90;;;1.65;84.70;102073.31;5045353;28;20281;-71
2023/01/23 01:51:50;;;;;;;23.67;13.10;;;1.90;99.90;;;1.66;84.60;102070.88;5045342;28;20621;-70
2023/01/23 01:54:29;;;;;;;21.60;11.63;;;1.90;99.90;;;1.66;84.82;102081.03;5041646;28;20779;-71
2023/01/23 01:57:02;;;;;;;26.70;13.73;;;1.90;99.90;;;1.66;84.65;102080.16;5030808;28;20284;-70
2023/01/23 01:59:36;;;;;;;23.33;12.63;;;1.90;99.90;;;1.65;85.25;102081.78;5041692;28;20675;-69
2023/01/23 02:02:12;;;;;;;24.93;13.13;;;1.90;99.90;;;1.66;85.26;102086.13;5044514;28;20268;-70
2023/01/23 02:04:45;;;;;;;26.70;11.90;;;1.90;99.90;;;1.67;84.76;102087.84;5049542;28;20205;-71
2023/01/23 02:07:23;;;;;;;24.90;12.87;;;1.90;99.90;;;1.66;84.79;102090.31;5035724;28;20213;-71
2023/01/23 02:09:54;;;;;;;23.17;11.87;;;1.90;99.90;;;1.66;85.19;102090.31;5040760;28;20194;-69
2023/01/23 02:12:23;;;;;;;20.87;12.57;;;1.90;99.90;;;1.67;85.27;102086.97;5045363;28;20663;-69
2023/01/23 02:14:51;;;;;;;22.83;12.80;;;1.90;99.90;;;1.68;85.16;102089.59;5033389;28;20245;-70
2023/01/23 02:17:20;;;;;;;23.30;12.20;;;1.90;99.90;;;1.68;85.07;102098.91;5046032;28;20694;-69
2023/01/23 02:20:01;;;;;;;21.43;12.37;;;1.90;99.90;;;1.69;84.29;102108.25;5048505;28;20202;-70
2023/01/23 02:22:42;;;;;;;22.10;12.13;;;1.90;99.90;;;1.65;84.91;102103.78;5040795;28;20696;-70
2023/01/23 02:25:22;;;;;;;22.90;12.73;;;2.00;99.90;;;1.66;84.58;102095.41;5037756;28;20534;-70
2023/01/23 02:27:52;;;;;;;25.83;12.53;;;1.90;99.90;;;1.68;85.13;102096.34;5046076;28;20203;-70
2023/01/23 02:30:22;;;;;;;24.90;12.33;;;1.90;99.90;;;1.69;84.34;102098.09;5038046;28;20528;-70
2023/01/23 02:32:50;;;;;;;22.50;11.57;;;1.90;99.90;;;1.72;84.61;102093.19;5034999;28;20272;-71
2023/01/23 02:35:25;;;;;;;29.50;12.87;;;1.90;99.90;;;1.70;84.54;102094.78;5038051;28;20214;-70
2023/01/23 02:37:58;;;;;;;20.70;11.77;;;1.90;99.90;;;1.69;84.67;102093.91;5041567;28;20225;-70
2023/01/23 02:40:32;;;;;;;22.90;13.20;;;1.90;99.90;;;1.68;84.80;102098.91;5036284;28;20198;-70
2023/01/23 02:43:04;;;;;;;24.33;12.40;;;1.90;99.90;;;1.65;84.28;102103.78;5040444;28;20224;-71
2023/01/23 02:45:33;;;;;;;22.77;12.40;;;1.90;99.90;;;1.62;84.37;102106.16;5032930;28;20202;-71
2023/01/23 02:48:04;;;;;;;23.37;12.07;;;1.90;99.90;;;1.62;84.37;102113.78;5031216;28;20203;-70
2023/01/23 02:50:34;;;;;;;24.07;12.80;;;1.80;99.90;;;1.59;84.91;102103.47;5046206;28;20202;-70
2023/01/23 02:53:02;;;;;;;23.00;12.63;;;1.80;99.90;;;1.58;85.40;102106.75;5045774;28;20217;-70
2023/01/23 02:55:32;;;;;;;24.73;12.57;;;1.80;99.90;;;1.56;84.50;102106.69;5034722;28;20233;-71
2023/01/23 03:00:44;;;;;;;26.33;14.00;;;1.80;99.90;;;1.56;84.90;102106.69;5041695;28;20230;-70
2023/01/23 03:03:13;;;;;;;27.97;13.07;;;1.80;99.90;;;1.53;84.61;102106.50;5045758;28;20237;-71
2023/01/23 03:05:41;;;;;;;25.40;12.60;;;1.80;99.90;;;1.55;85.45;102106.63;5034465;28;20210;-70
2023/01/23 03:08:10;;;;;;;25.27;13.30;;;1.80;99.90;;;1.55;85.37;102102.41;5040496;28;20210;-70
2023/01/23 03:10:38;;;;;;;26.03;12.77;;;1.80;99.90;;;1.57;85.11;102107.56;5037307;28;20230;-70
2023/01/23 03:13:10;;;;;;;24.63;13.10;;;1.80;99.90;;;1.58;85.53;102111.84;5029515;28;20213;-72
2023/01/23 03:15:40;;;;;;;19.93;12.50;;;1.80;99.90;;;1.57;84.99;102115.19;5039415;28;20206;-70
2023/01/23 03:18:09;;;;;;;28.07;13.47;;;1.80;99.90;;;1.54;84.87;102110.78;5044465;28;20845;-70
2023/01/23 03:20:41;;;;;;;24.17;14.20;;;1.80;99.90;;;1.54;85.21;102113.31;5047851;28;20241;-70
2023/01/23 03:23:10;;;;;;;27.53;12.77;;;1.80;99.90;;;1.55;85.00;102116.78;5048002;28;20217;-70
2023/01/23 03:25:43;;;;;;;25.10;12.97;;;1.80;99.90;;;1.55;85.06;102120.19;5039875;28;20352;-70
2023/01/23 03:30:55;;;;;;;24.30;12.93;;;1.80;99.90;;;1.54;85.20;102117.53;5031951;28;20198;-71
2023/01/23 03:33:24;;;;;;;26.43;13.47;;;1.80;99.90;;;1.52;85.17;102108.97;5045069;28;20206;-69
2023/01/23 03:35:53;;;;;;;26.13;12.00;;;1.80;99.90;;;1.52;84.89;102114.91;5048376;28;20248;-69
2023/01/23 03:38:21;;;;;;;25.67;13.30;;;1.80;99.90;;;1.53;85.73;102119.22;5035494;28;20233;-70
2023/01/23 03:43:38;;;;;;;27.40;13.67;;;1.80;99.90;;;1.55;84.89;102117.66;5037570;28;20282;-71
2023/01/23 03:46:06;;;;;;;25.87;13.93;;;1.80;99.90;;;1.55;85.74;102120.19;5049019;28;20627;-71
2023/01/23 03:48:35;;;;;;;27.87;13.50;;;1.80;99.90;;;1.56;85.23;102124.47;5042836;28;20202;-71
2023/01/23 03:51:03;;;;;;;26.40;13.47;;;1.80;99.90;;;1.55;84.87;102130.34;5046158;28;20207;-71
2023/01/23 03:53:32;;;;;;;28.93;13.47;;;1.80;99.90;;;1.57;85.24;102133.84;5041286;28;20544;-71
2023/01/23 03:56:00;;;;;;;24.63;13.20;;;1.80;99.90;;;1.57;85.48;102140.59;5030434;28;20790;-69
2023/01/23 03:58:29;;;;;;;23.50;12.80;;;1.80;99.90;;;1.56;85.24;102138.84;5039806;28;20295;-70
2023/01/23 04:01:02;;;;;;;30.00;13.03;;;1.80;99.90;;;1.56;84.85;102152.41;5037609;28;20634;-70
2023/01/23 04:03:30;;;;;;;27.93;13.10;;;1.80;99.90;;;1.53;84.55;102144.59;5043160;28;20230;-69
2023/01/23 04:05:59;;;;;;;24.17;12.70;;;1.80;99.90;;;1.52;85.21;102144.53;5044217;28;20232;-70
2023/01/23 04:08:28;;;;;;;27.23;13.57;;;1.80;99.90;;;1.52;85.23;102144.53;5036472;28;20209;-69
2023/01/23 04:11:05;;;;;;;27.17;13.57;;;1.80;99.90;;;1.50;85.30;102138.47;5047411;28;20790;-70
2023/01/23 04:13:34;;;;;;;34.27;13.47;;;1.80;99.90;;;1.49;85.46;102135.06;5038512;28;20256;-70
2023/01/23 04:16:05;;;;;;;26.73;13.43;;;1.80;99.90;;;1.46;84.74;102139.94;5040273;28;20628;-69
2023/01/23 04:18:34;;;;;;;27.23;13.73;;;1.70;99.90;;;1.47;85.52;102144.25;5046007;28;20673;-68
2023/01/23 04:21:03;;;;;;;29.30;14.43;;;1.70;99.90;;;1.47;85.24;102139.16;5045745;28;20248;-69
2023/01/23 04:23:32;;;;;;;25.20;14.43;;;1.70;99.90;;;1.50;85.01;102141.88;5045542;28;20741;-69
2023/01/23 04:26:00;;;;;;;26.23;13.53;;;1.80;99.90;;;1.51;85.24;102138.59;5051487;28;20285;-69
2023/01/23 04:28:28;;;;;;;24.30;13.17;;;1.80;99.90;;;1.49;84.94;102144.34;5032974;28;20207;-70
2023/01/23 04:30:57;;;;;;;29.47;13.77;;;1.80;99.90;;;1.51;85.21;102155.47;5033191;28;20294;-69
2023/01/23 04:33:30;;;;;;;27.43;13.53;;;1.80;99.90;;;1.51;85.68;102155.47;5045841;28;20207;-70
2023/01/23 04:36:04;;;;;;;22.67;13.00;;;1.70;99.90;;;1.50;84.81;102158.78;5042221;28;20210;-70
2023/01/23 04:38:34;;;;;;;28.07;13.53;;;1.80;99.90;;;1.49;85.21;102163.00;5046871;28;20213;-70
2023/01/23 04:41:02;;;;;;;26.77;13.97;;;1.70;99.90;;;1.50;84.76;102158.78;5035632;28;20203;-70
2023/01/23 04:43:31;;;;;;;23.70;13.37;;;1.70;99.90;;;1.49;85.52;102155.38;5043513;28;20693;-70
2023/01/23 04:45:59;;;;;;;25.57;12.83;;;1.70;99.90;;;1.50;85.37;102161.34;5051866;28;20214;-69
2023/01/23 04:48:29;;;;;;;25.37;13.53;;;1.70;99.90;;;1.48;85.13;102170.53;5045258;28;20216;-68
2023/01/23 04:50:58;;;;;;;25.97;13.00;;;1.70;99.90;;;1.45;84.98;102167.03;5040802;28;20201;-71
2023/01/23 04:53:27;;;;;;;22.60;12.63;;;1.70;99.90;;;1.48;85.58;102162.94;5043853;28;20217;-70
2023/01/23 04:55:55;;;;;;;22.90;12.33;;;1.70;99.90;;;1.49;84.84;102172.28;5049399;28;20260;-71
2023/01/23 04:58:23;;;;;;;28.77;13.90;;;1.70;99.90;;;1.50;85.27;102174.03;5037977;28;20231;-71
2023/01/23 05:00:52;;;;;;;22.17;12.43;;;1.70;99.90;;;1.52;85.57;102178.44;5051781;28;20217;-71
2023/01/23 05:03:21;;;;;;;26.37;12.53;;;1.80;99.90;;;1.51;85.08;102163.97;5051329;28;20229;-70
2023/01/23 05:05:50;;;;;;;25.03;13.87;;;1.70;99.90;;;1.50;85.17;102163.88;5045586;28;20203;-70
2023/01/23 05:08:19;;;;;;;26.40;13.97;;;1.80;99.90;;;1.49;85.16;102185.00;5036556;28;20209;-69
2023/01/23 05:10:47;;;;;;;25.13;13.33;;;1.70;99.90;;;1.46;85.27;102180.59;5033974;28;20798;-69
2023/01/23 05:13:16;;;;;;;27.63;13.53;;;1.70;99.90;;;1.48;84.79;102186.66;5049493;28;20594;-69
2023/01/23 05:15:44;;;;;;;20.70;11.50;;;1.80;99.90;;;1.51;85.25;102185.94;5040108;28;20553;-72
2023/01/23 05:18:13;;;;;;;24.73;13.27;;;1.80;99.90;;;1.48;85.08;102176.50;5051440;28;20691;-69
2023/01/23 05:20:41;;;;;;;24.50;13.50;;;1.70;99.90;;;1.50;84.90;102181.66;5046254;28;20205;-71
2023/01/23 05:23:11;;;;;;;24.10;13.13;;;1.80;99.90;;;1.47;84.62;102174.72;5039133;28;20218;-69
2023/01/23 05:25:40;;;;;;;24.73;12.43;;;1.70;99.90;;;1.44;84.90;102172.03;5045610;28;20202;-70
2023/01/23 05:28:08;;;;;;;22.33;12.80;;;1.70;99.90;;;1.46;85.59;102180.59;5041429;28;20213;-70
2023/01/23 05:30:39;;;;;;;23.93;12.03;;;1.70;99.90;;;1.46;84.55;102190.75;5047513;28;20573;-69
2023/01/23 05:33:07;;;;;;;23.30;13.23;;;1.70;99.90;;;1.46;85.35;102188.22;5044615;28;20210;-70
2023/01/23 05:35:38;;;;;;;23.77;12.23;;;1.70;99.90;;;1.44;85.22;102183.06;5041791;28;20238;-69
2023/01/23 05:38:06;;;;;;;23.17;12.77;;;1.70;99.90;;;1.43;85.25;102186.34;5045124;28;20236;-70
2023/01/23 05:40:37;;;;;;;20.83;12.23;;;1.70;99.90;;;1.42;84.95;102196.44;5031840;28;20285;-70
2023/01/23 05:43:06;;;;;;;26.80;13.37;;;1.70;99.90;;;1.40;84.78;102198.00;5031253;28;20210;-69
2023/01/23 05:45:34;;;;;;;29.70;12.90;;;1.60;99.90;;;1.39;85.24;102202.22;5039961;28;20222;-68
2023/01/23 05:48:03;;;;;;;22.03;11.90;;;1.70;99.90;;;1.38;85.29;102200.47;5038480;28;20210;-69
2023/01/23 05:50:32;;;;;;;23.63;13.83;;;1.70;99.90;;;1.38;85.61;102205.53;5045910;28;20592;-69
2023/01/23 05:53:01;;;;;;;29.77;13.93;;;1.70;99.90;;;1.40;84.77;102209.06;5040079;28;20220;-70
2023/01/23 05:55:30;;;;;;;23.33;13.23;;;1.70;99.90;;;1.41;84.84;102213.34;5034407;28;20665;-69
2023/01/23 05:58:00;;;;;;;25.27;12.30;;;1.70;99.90;;;1.43;84.64;102216.84;5031140;28;20234;-70
2023/01/23 06:00:28;;;;;;;23.17;13.43;;;1.70;99.90;;;1.40;85.54;102229.38;5044967;28;20232;-70
2023/01/23 06:02:56;;;;;;;23.13;12.80;;;1.70;99.90;;;1.42;85.51;102225.25;5040985;28;20214;-71
2023/01/23 06:05:25;;;;;;;24.60;12.73;;;1.70;99.90;;;1.42;84.74;102227.78;5044498;28;20214;-70
2023/01/23 06:07:53;;;;;;;24.40;12.73;;;1.70;99.90;;;1.46;84.53;102233.94;5048199;28;20206;-71
2023/01/23 06:10:22;;;;;;;23.23;12.10;;;1.70;99.90;;;1.49;84.77;102234.13;5044482;28;20238;-71
2023/01/23 06:12:50;;;;;;;21.33;12.57;;;1.80;99.90;;;1.49;84.99;102235.78;5050060;28;20280;-70
2023/01/23 06:15:20;;;;;;;24.20;13.90;;;1.80;99.90;;;1.49;84.74;102239.22;5039852;28;20267;-70
2023/01/23 06:17:48;;;;;;;23.73;12.83;;;1.70;99.90;;;1.49;84.91;102243.41;5040094;28;20583;-70
2023/01/23 06:20:17;;;;;;;26.03;13.10;;;1.70;99.90;;;1.49;84.98;102243.41;5048200;28;20228;-68
2023/01/23 06:22:46;;;;;;;22.20;12.70;;;1.80;99.90;;;1.50;84.85;102250.25;5046599;28;20306;-68
2023/01/23 06:25:16;;;;;;;22.97;12.90;;;1.80;99.90;;;1.48;84.09;102245.09;5040458;28;20206;-69
2023/01/23 06:27:44;;;;;;;24.20;13.20;;;1.70;99.90;;;1.48;84.38;102249.28;5041582;28;20247;-70
2023/01/23 06:30:13;;;;;;;20.93;12.40;;;1.80;99.90;;;1.49;84.50;102257.00;5043126;28;20212;-70
2023/01/23 06:32:43;;;;;;;24.63;13.53;;;1.80;99.90;;;1.50;85.00;102258.75;5039935;28;20218;-71
2023/01/23 06:35:12;;;;;;;23.97;12.60;;;1.80;99.90;;;1.52;84.49;102269.03;5039104;28;20699;-70
2023/01/23 06:37:40;;;;;;;27.23;13.27;;;1.80;99.90;;;1.51;84.60;102274.84;5037503;28;20206;-71
2023/01/23 06:40:12;;;;;;;26.13;13.60;;;1.80;99.90;;;1.52;85.03;102284.25;5038244;28;20213;-70
2023/01/23 06:42:41;;;;;;;25.47;13.40;;;1.80;99.90;;;1.53;84.23;102296.16;5046433;28;20202;-70
2023/01/23 06:45:11;;;;;;;25.37;13.80;;;1.80;99.90;;;1.53;84.33;102299.59;5041845;28;20206;-70
2023/01/23 06:47:39;;;;;;;23.33;12.30;;;1.80;99.90;;;1.55;84.70;102302.25;5049743;28;20202;-69
2023/01/23 06:50:10;;;;;;;26.13;12.43;;;1.80;99.90;;;1.54;84.13;102300.47;5044015;28;20206;-68
2023/01/23 06:52:39;;;;;;;26.30;13.63;;;1.80;99.90;;;1.54;84.82;102305.53;5046264;28;20227;-70
2023/01/23 06:55:09;;;;;;;24.67;13.47;;;1.80;99.90;;;1.54;84.41;102303.88;5042862;28;20660;-71
2023/01/23 06:57:37;;;;;;;27.17;13.40;;;1.80;99.90;;;1.56;84.58;102307.41;5038168;28;20274;-73
2023/01/23 07:00:08;;;;;;;21.87;12.33;;;1.80;99.90;;;1.56;84.89;102306.53;5040503;28;20549;-70
2023/01/23 07:02:38;;;;;;;23.00;12.60;;;1.80;99.90;;;1.56;84.86;102302.31;5040523;28;20213;-71
2023/01/23 07:05:09;;;;;;;22.97;12.80;;;1.80;99.90;;;1.57;83.95;102304.06;5045661;28;20305;-68
2023/01/23 07:07:38;;;;;;;24.33;12.57;;;1.80;99.90;;;1.57;83.91;102313.34;5044974;28;20205;-69
2023/01/23 07:10:08;;;;;;;21.67;13.20;;;1.90;99.90;;;1.59;84.62;102312.66;5033660;28;20285;-70
2023/01/23 07:12:36;;;;;;;25.03;12.80;;;1.90;99.90;;;1.61;85.11;102308.53;5048750;28;20277;-70
2023/01/23 07:15:06;;;;;;;28.57;14.27;;;1.90;99.90;;;1.62;84.14;102304.34;5049139;28;20217;-70
2023/01/23 07:17:34;;;;;;;22.90;13.10;;;1.90;99.90;;;1.65;84.84;102307.06;5046484;28;20205;-70
2023/01/23 07:20:04;;;;;;;23.50;13.07;;;1.90;99.90;;;1.69;84.50;102317.53;5032614;28;20675;-73
2023/01/23 07:22:33;;;;;;;21.80;13.47;;;1.90;99.90;;;1.72;84.66;102315.94;5049464;28;20214;-70
2023/01/23 07:25:02;;;;;;;24.40;13.87;;;2.00;99.90;;;1.73;84.82;102316.06;5043025;28;20214;-72
2023/01/23 07:27:31;;;;;;;25.73;13.60;;;2.00;99.90;;;1.74;84.07;102320.34;5041376;28;20226;-71
2023/01/23 07:30:00;;;;;;;23.13;13.33;;;2.00;99.90;;;1.76;84.47;102326.38;5031162;28;20206;-71
2023/01/23 07:32:28;;;;;;;20.73;12.60;;;2.00;99.90;;;1.79;83.67;102325.69;5029802;28;20236;-69
2023/01/23 07:34:57;;;;;;;26.27;13.90;;;2.00;99.90;;;1.79;84.39;102321.50;5043423;28;20222;-70
2023/01/23 07:37:25;;;;;;;27.87;14.13;;;2.00;99.90;;;1.81;84.11;102322.47;5039506;28;20226;-71
2023/01/23 07:39:55;;;;;;;21.00;13.67;;;2.10;99.90;;;1.84;84.36;102325.22;5042142;28;20316;-70
2023/01/23 07:42:23;;;;;;;25.30;12.93;;;2.10;99.90;;;1.86;84.45;102326.16;5033895;28;20221;-71
2023/01/23 07:44:53;;;;;;;22.87;13.10;;;2.10;99.90;;;1.89;84.05;102325.47;5044575;28;20257;-72
2023/01/23 07:47:22;;;;;;;23.80;13.83;;;2.10;99.90;;;1.90;83.97;102319.59;5048572;28;20198;-68
2023/01/23 07:49:51;;;;;;;24.70;13.13;;;2.10;99.90;;;1.92;84.24;102325.66;5047210;28;20708;-73
2023/01/23 07:52:20;;;;;;;24.30;12.60;;;2.20;99.90;;;1.91;84.15;102321.34;5045431;28;20289;-73
2023/01/23 07:54:48;;;;;;;27.30;14.37;;;2.10;99.90;;;1.87;83.61;102320.28;5043210;28;20268;-69
2023/01/23 07:57:18;;;;;;;25.50;14.07;;;2.20;99.90;;;1.90;83.62;102324.69;5046394;28;20202;-73
2023/01/23 07:59:48;;;;;;;26.10;13.00;;;2.10;99.90;;;1.87;83.33;102330.44;5039438;28;20269;-73
2023/01/23 08:02:16;;;;;;;22.67;13.43;;;2.10;99.90;;;1.86;83.71;102328.72;5045735;28;20260;-67
2023/01/23 08:04:45;;;;;;;25.10;12.13;;;2.10;99.90;;;1.88;83.93;102342.41;5040807;28;20252;-71
2023/01/23 08:07:13;;;;;;;22.80;12.70;;;2.10;99.90;;;1.86;83.38;102332.91;5047512;28;20206;-72
2023/01/23 08:09:42;;;;;;;22.30;12.67;;;2.10;99.90;;;1.89;83.95;102338.19;5039797;28;20198;-72
2023/01/23 08:12:12;;;;;;;23.60;13.43;;;2.10;99.90;;;1.90;82.91;102340.81;5048484;28;20205;-70
2023/01/23 08:14:42;;;;;;;22.97;12.87;;;2.20;99.90;;;1.91;83.23;102337.50;5044641;28;20664;-72
2023/01/23 08:17:10;;;;;;;21.40;12.47;;;2.20;99.90;;;1.96;83.52;102342.00;5038163;28;20238;-71
2023/01/23 08:19:39;;;;;;;23.80;13.10;;;2.20;99.90;;;1.98;82.78;102348.03;5041853;28;20226;-71
2023/01/23 08:22:07;;;;;;;29.07;14.53;;;2.20;99.90;;;2.00;83.29;102351.56;5036986;28;20198;-72
2023/01/23 08:24:36;;;;;;;32.87;14.47;;;2.30;99.90;;;2.13;84.52;102349.81;5050417;28;20210;-70
2023/01/23 08:27:04;;;;;;;22.73;13.60;;;2.40;99.90;;;2.28;84.16;102348.97;5037630;28;20207;-73
2023/01/23 08:29:33;;;;;;;26.80;14.57;;;2.50;99.90;;;2.38;83.52;102354.69;5034752;28;20207;-71
2023/01/23 08:32:03;;;;;;;24.70;14.13;;;2.60;99.90;;;2.38;83.17;102351.28;5037487;28;20209;-74
2023/01/23 08:34:32;;;;;;;22.97;13.83;;;2.60;99.90;;;2.38;83.23;102358.91;5038337;28;20210;-72
2023/01/23 08:37:00;;;;;;;29.77;13.50;;;2.70;99.90;;;2.36;82.93;102363.91;5040964;28;20269;-72
2023/01/23 08:39:29;;;;;;;23.60;12.20;;;2.60;99.90;;;2.33;82.03;102363.72;5042312;28;20647;-71
2023/01/23 08:41:57;;;;;;;22.67;13.17;;;2.60;99.90;;;2.28;82.23;102362.56;5045994;28;20272;-72
2023/01/23 08:44:26;;;;;;;21.57;13.00;;;2.60;99.90;;;2.24;81.66;102365.72;5040413;28;20248;-72
2023/01/23 08:46:55;;;;;;;25.17;14.07;;;2.50;99.90;;;2.22;81.64;102380.03;5044531;28;20693;-74
2023/01/23 08:49:25;;;;;;;22.90;13.73;;;2.50;99.90;;;2.19;82.27;102387.47;5046811;28;20210;-72
2023/01/23 08:51:55;;;;;;;24.30;12.50;;;2.40;99.90;;;2.21;82.43;102393.53;5039964;28;20209;-72
2023/01/23 08:54:24;;;;;;;23.07;13.23;;;2.40;99.90;;;2.16;82.22;102377.09;5045242;28;20210;-71
2023/01/23 08:56:52;;;;;;;23.00;13.27;;;2.50;99.90;;;2.21;82.66;102385.00;5038709;28;20226;-70
2023/01/23 08:59:21;;;;;;;24.13;13.33;;;2.40;99.90;;;2.20;81.73;102389.22;5045987;28;20217;-70
2023/01/23 09:01:49;;;;;;;22.87;13.33;;;2.40;99.90;;;2.15;81.94;102393.16;5043344;28;20309;-70
2023/01/23 09:04:18;;;;;;;22.13;13.73;;;2.40;99.90;;;2.11;82.31;102386.13;5040089;28;21580;-71
2023/01/23 09:06:47;;;;;;;25.43;14.60;;;2.40;99.90;;;2.11;81.92;102386.13;5038373;28;20222;-69
2023/01/23 09:09:17;;;;;;;24.10;13.17;;;2.40;99.90;;;2.14;82.38;102383.78;5038847;28;20409;-69
2023/01/23 09:11:46;;;;;;;23.60;14.87;;;2.40;99.90;;;2.14;82.00;102387.19;5037650;28;20233;-70
2023/01/23 09:14:14;;;;;;;23.83;13.03;;;2.40;99.90;;;2.12;82.94;102377.72;5046672;28;20197;-72
2023/01/23 09:16:43;;;;;;;26.30;13.20;;;2.40;99.90;;;2.13;82.14;102375.25;5036828;28;20733;-72
2023/01/23 09:19:11;;;;;;;26.87;13.07;;;2.40;99.90;;;2.17;82.76;102373.75;5046885;28;20206;-70
2023/01/23 09:21:40;;;;;;;24.00;13.77;;;2.50;99.90;;;2.21;82.76;102377.38;5043195;28;20322;-72
2023/01/23 09:24:10;;;;;;;26.43;13.73;;;2.50;99.90;;;2.22;82.47;102382.56;5049767;28;20221;-73
2023/01/23 09:26:39;;;;;;;25.13;14.13;;;2.50;99.90;;;2.21;81.74;102374.81;5037536;28;20218;-70
2023/01/23 09:29:07;;;;;;;22.20;13.33;;;2.50;99.90;;;2.24;82.21;102380.09;5038495;28;20672;-70
2023/01/23 09:31:36;;;;;;;24.13;13.63;;;2.50;99.90;;;2.24;81.37;102372.47;5033770;28;20225;-70
2023/01/23 09:34:06;;;;;;;23.30;13.00;;;2.50;99.90;;;2.23;82.68;102370.72;5031344;28;20245;-70
2023/01/23 09:36:35;;;;;;;26.10;15.00;;;2.50;99.90;;;2.23;81.95;102363.09;5036530;28;20567;-69
2023/01/23 09:39:12;;;;;;;27.73;15.70;;;2.50;99.90;;;2.21;82.34;102364.66;5043346;28;20198;-69
2023/01/23 09:41:43;;;;;;;25.80;14.33;;;2.50;99.90;;;2.16;81.92;102365.25;5049244;28;20213;-69
2023/01/23 09:44:18;;;;;;;24.07;14.20;;;2.50;99.90;;;2.15;82.15;102363.50;5049376;28;20275;-69
2023/01/23 09:46:51;;;;;;;28.03;13.93;;;2.40;99.90;;;2.15;82.23;102363.50;5038037;28;20623;-69
2023/01/23 09:49:25;;;;;;;24.70;13.40;;;2.40;99.90;;;2.15;81.87;102362.63;5037955;28;20209;-68
2023/01/23 09:52:01;;;;;;;25.63;14.20;;;2.40;99.90;;;2.18;81.85;102361.16;5039355;28;20252;-71
2023/01/23 09:54:42;;;;;;;27.47;14.07;;;2.50;99.90;;;2.24;82.63;102363.16;5045848;28;20247;-74
2023/01/23 09:57:15;;;;;;;27.83;15.50;;;2.50;99.90;;;2.33;82.36;102358.66;5032778;28;20198;-72
2023/01/23 09:59:50;;;;;;;24.10;14.87;;;2.60;99.90;;;2.45;82.50;102363.56;5037267;28;20248;-70
2023/01/23 10:02:28;;;;;;;28.63;16.03;;;2.70;99.90;;;2.54;82.88;102348.84;5044337;28;20212;-69
2023/01/23 10:05:01;;;;;;;28.30;15.20;;;2.80;99.90;;;2.69;82.60;102359.03;5045449;28;20221;-71
2023/01/23 10:08:00;;;;;;;22.40;13.37;;;2.90;99.90;;;2.81;82.35;102359.75;5040258;28;20209;-72
2023/01/23 10:10:57;;;;;;;20.73;12.53;;;3.10;99.90;;;2.92;81.75;102356.94;5040187;28;20248;-71
2023/01/23 10:13:53;;;;;;;22.00;13.53;;;3.10;99.90;;;2.97;81.05;102358.06;5036840;28;20659;-69
2023/01/23 10:16:54;;;;;;;25.10;12.93;;;3.20;99.90;;;3.03;80.65;102358.41;5029378;28;20647;-71
2023/01/23 10:20:02;;;;;;;22.13;12.93;;;3.20;99.90;;;3.06;80.72;102361.13;5029886;28;20256;-71
2023/01/23 10:22:38;;;;;;;26.37;13.67;;;3.30;99.90;;;3.07;80.09;102363.75;5040056;28;20281;-72
2023/01/23 10:25:17;;;;;;;21.83;12.93;;;3.30;99.90;;;3.10;80.57;102361.38;5049352;28;20202;-73
2023/01/23 10:27:50;;;;;;;21.83;12.53;;;3.30;99.90;;;3.12;80.57;102357.22;5033231;28;20205;-72
2023/01/23 10:30:28;;;;;;;20.80;13.20;;;3.30;99.90;;;3.15;79.70;102359.97;5030109;28;20666;-71
2023/01/23 10:33:00;;;;;;;26.07;13.17;;;3.30;99.90;;;3.18;79.50;102354.16;5042400;28;20210;-72
2023/01/23 10:35:37;;;;;;;23.50;13.37;;;3.40;99.90;;;3.22;79.68;102356.09;5048166;28;20202;-71